sensor_id;sensor_type;location;lat;lon;timestamp;P1;durP1;ratioP1;P2;durP2;ratioP2
12556;SDS011;6344;49.932;8.308;2024-02-21T00:00:31;8.67;;;7.43;;
12556;SDS011;6344;49.932;8.308;2024-02-21T00:02:58;14.60;;;7.77;;
12556;SDS011;6344;49.932;8.308;2024-02-21T00:05:27;13.77;;;7.80;;
12556;SDS011;6344;49.932;8.308;2024-02-21T00:07:54;14.93;;;8.53;;
12556;SDS011;6344;49.932;8.308;2024-02-21T00:10:22;18.23;;;8.20;;
12556;SDS011;6344;49.932;8.308;2024-02-21T00:12:50;15.23;;;9.10;;
12556;SDS011;6344;49.932;8.308;2024-02-21T00:15:17;13.17;;;8.37;;
12556;SDS011;6344;49.932;8.308;2024-02-21T00:17:44;10.00;;;8.30;;
12556;SDS011;6344;49.932;8.308;2024-02-21T00:20:11;14.40;;;9.50;;
12556;SDS011;6344;49.932;8.308;2024-02-21T00:22:38;13.30;;;9.10;;
12556;SDS011;6344;49.932;8.308;2024-02-21T00:25:05;13.83;;;8.73;;
12556;SDS011;6344;49.932;8.308;2024-02-21T00:27:34;13.77;;;8.57;;
12556;SDS011;6344;49.932;8.308;2024-02-21T00:30:01;14.63;;;9.00;;
12556;SDS011;6344;49.932;8.308;2024-02-21T00:32:28;13.20;;;8.37;;
12556;SDS011;6344;49.932;8.308;2024-02-21T00:34:55;16.97;;;9.20;;
12556;SDS011;6344;49.932;8.308;2024-02-21T00:37:23;13.77;;;8.73;;
12556;SDS011;6344;49.932;8.308;2024-02-21T00:39:50;13.63;;;8.60;;
12556;SDS011;6344;49.932;8.308;2024-02-21T00:42:18;15.87;;;8.53;;
12556;SDS011;6344;49.932;8.308;2024-02-21T00:44:46;15.17;;;9.47;;
12556;SDS011;6344;49.932;8.308;2024-02-21T00:47:13;14.50;;;8.57;;
12556;SDS011;6344;49.932;8.308;2024-02-21T00:49:40;13.20;;;8.93;;
12556;SDS011;6344;49.932;8.308;2024-02-21T00:52:07;10.07;;;8.93;;
12556;SDS011;6344;49.932;8.308;2024-02-21T00:54:34;15.07;;;9.47;;
12556;SDS011;6344;49.932;8.308;2024-02-21T00:57:01;13.33;;;8.33;;
12556;SDS011;6344;49.932;8.308;2024-02-21T00:59:29;13.33;;;8.10;;
12556;SDS011;6344;49.932;8.308;2024-02-21T01:01:58;17.23;;;8.10;;
12556;SDS011;6344;49.932;8.308;2024-02-21T01:04:25;12.90;;;9.27;;
12556;SDS011;6344;49.932;8.308;2024-02-21T01:06:52;10.27;;;8.00;;
12556;SDS011;6344;49.932;8.308;2024-02-21T01:09:19;9.77;;;8.47;;
12556;SDS011;6344;49.932;8.308;2024-02-21T01:11:46;13.83;;;8.90;;
12556;SDS011;6344;49.932;8.308;2024-02-21T01:14:13;10.53;;;8.47;;
12556;SDS011;6344;49.932;8.308;2024-02-21T01:16:40;10.57;;;9.20;;
12556;SDS011;6344;49.932;8.308;2024-02-21T01:19:09;12.07;;;8.23;;
12556;SDS011;6344;49.932;8.308;2024-02-21T01:21:36;13.17;;;8.53;;
12556;SDS011;6344;49.932;8.308;2024-02-21T01:24:03;14.13;;;8.47;;
12556;SDS011;6344;49.932;8.308;2024-02-21T01:26:30;12.00;;;8.43;;
12556;SDS011;6344;49.932;8.308;2024-02-21T01:28:57;9.00;;;7.93;;
12556;SDS011;6344;49.932;8.308;2024-02-21T01:31:24;10.83;;;7.40;;
12556;SDS011;6344;49.932;8.308;2024-02-21T01:33:51;9.37;;;7.70;;
12556;SDS011;6344;49.932;8.308;2024-02-21T01:36:20;9.03;;;8.07;;
12556;SDS011;6344;49.932;8.308;2024-02-21T01:38:47;9.73;;;8.73;;
12556;SDS011;6344;49.932;8.308;2024-02-21T01:41:14;13.97;;;8.17;;
12556;SDS011;6344;49.932;8.308;2024-02-21T01:43:41;8.23;;;7.30;;
12556;SDS011;6344;49.932;8.308;2024-02-21T01:46:08;11.70;;;7.83;;
12556;SDS011;6344;49.932;8.308;2024-02-21T01:48:35;11.23;;;7.63;;
12556;SDS011;6344;49.932;8.308;2024-02-21T01:51:03;12.67;;;8.00;;
12556;SDS011;6344;49.932;8.308;2024-02-21T01:53:32;11.93;;;8.00;;
12556;SDS011;6344;49.932;8.308;2024-02-21T01:56:00;14.17;;;8.43;;
12556;SDS011;6344;49.932;8.308;2024-02-21T01:58:28;9.20;;;7.50;;
12556;SDS011;6344;49.932;8.308;2024-02-21T02:00:56;11.50;;;7.00;;
12556;SDS011;6344;49.932;8.308;2024-02-21T02:03:23;12.03;;;6.90;;
12556;SDS011;6344;49.932;8.308;2024-02-21T02:05:50;11.90;;;7.53;;
12556;SDS011;6344;49.932;8.308;2024-02-21T02:08:18;11.50;;;7.30;;
12556;SDS011;6344;49.932;8.308;2024-02-21T02:10:48;16.37;;;6.90;;
12556;SDS011;6344;49.932;8.308;2024-02-21T02:13:15;16.23;;;10.00;;
12556;SDS011;6344;49.932;8.308;2024-02-21T02:15:43;7.77;;;7.07;;
12556;SDS011;6344;49.932;8.308;2024-02-21T02:18:10;11.13;;;7.30;;
12556;SDS011;6344;49.932;8.308;2024-02-21T02:23:42;13.10;;;7.73;;
12556;SDS011;6344;49.932;8.308;2024-02-21T02:26:09;13.80;;;7.50;;
12556;SDS011;6344;49.932;8.308;2024-02-21T02:28:36;10.70;;;7.07;;
12556;SDS011;6344;49.932;8.308;2024-02-21T02:31:03;13.63;;;8.50;;
12556;SDS011;6344;49.932;8.308;2024-02-21T02:33:30;12.43;;;7.23;;
12556;SDS011;6344;49.932;8.308;2024-02-21T02:35:57;11.17;;;7.53;;
12556;SDS011;6344;49.932;8.308;2024-02-21T02:38:24;14.87;;;7.40;;
12556;SDS011;6344;49.932;8.308;2024-02-21T02:40:53;11.23;;;8.00;;
12556;SDS011;6344;49.932;8.308;2024-02-21T02:43:20;9.53;;;7.50;;
12556;SDS011;6344;49.932;8.308;2024-02-21T02:45:47;10.60;;;6.97;;
12556;SDS011;6344;49.932;8.308;2024-02-21T02:48:14;16.37;;;7.43;;
12556;SDS011;6344;49.932;8.308;2024-02-21T02:50:41;11.80;;;7.40;;
12556;SDS011;6344;49.932;8.308;2024-02-21T02:53:08;13.20;;;8.33;;
12556;SDS011;6344;49.932;8.308;2024-02-21T02:55:35;12.10;;;6.93;;
12556;SDS011;6344;49.932;8.308;2024-02-21T02:58:04;11.63;;;7.67;;
12556;SDS011;6344;49.932;8.308;2024-02-21T03:00:31;14.00;;;6.53;;
12556;SDS011;6344;49.932;8.308;2024-02-21T03:03:01;11.20;;;7.80;;
12556;SDS011;6344;49.932;8.308;2024-02-21T03:05:28;17.13;;;8.47;;
12556;SDS011;6344;49.932;8.308;2024-02-21T03:07:59;15.27;;;8.03;;
12556;SDS011;6344;49.932;8.308;2024-02-21T03:10:26;10.57;;;8.50;;
12556;SDS011;6344;49.932;8.308;2024-02-21T03:12:54;14.67;;;7.50;;
12556;SDS011;6344;49.932;8.308;2024-02-21T03:15:22;11.93;;;8.57;;
12556;SDS011;6344;49.932;8.308;2024-02-21T03:17:49;13.87;;;7.83;;
12556;SDS011;6344;49.932;8.308;2024-02-21T03:20:16;7.50;;;6.77;;
12556;SDS011;6344;49.932;8.308;2024-02-21T03:22:44;9.80;;;7.67;;
12556;SDS011;6344;49.932;8.308;2024-02-21T03:25:11;11.00;;;8.50;;
12556;SDS011;6344;49.932;8.308;2024-02-21T03:27:40;10.13;;;7.80;;
12556;SDS011;6344;49.932;8.308;2024-02-21T03:30:07;10.73;;;7.30;;
12556;SDS011;6344;49.932;8.308;2024-02-21T03:32:35;12.30;;;8.30;;
12556;SDS011;6344;49.932;8.308;2024-02-21T03:35:04;11.30;;;7.40;;
12556;SDS011;6344;49.932;8.308;2024-02-21T03:37:31;14.97;;;7.93;;
12556;SDS011;6344;49.932;8.308;2024-02-21T03:39:58;12.80;;;8.50;;
12556;SDS011;6344;49.932;8.308;2024-02-21T03:42:25;17.60;;;8.17;;
12556;SDS011;6344;49.932;8.308;2024-02-21T03:44:54;13.93;;;8.93;;
12556;SDS011;6344;49.932;8.308;2024-02-21T03:47:21;12.00;;;8.33;;
12556;SDS011;6344;49.932;8.308;2024-02-21T03:49:50;10.70;;;7.90;;
12556;SDS011;6344;49.932;8.308;2024-02-21T03:52:17;15.07;;;7.30;;
12556;SDS011;6344;49.932;8.308;2024-02-21T03:54:44;15.80;;;8.57;;
12556;SDS011;6344;49.932;8.308;2024-02-21T03:57:11;13.90;;;7.20;;
12556;SDS011;6344;49.932;8.308;2024-02-21T03:59:38;14.60;;;7.27;;
12556;SDS011;6344;49.932;8.308;2024-02-21T04:02:06;9.73;;;6.80;;
12556;SDS011;6344;49.932;8.308;2024-02-21T04:04:33;9.83;;;7.73;;
12556;SDS011;6344;49.932;8.308;2024-02-21T04:07:03;12.50;;;8.00;;
12556;SDS011;6344;49.932;8.308;2024-02-21T04:09:32;16.93;;;8.17;;
12556;SDS011;6344;49.932;8.308;2024-02-21T04:11:59;16.03;;;8.67;;
12556;SDS011;6344;49.932;8.308;2024-02-21T04:14:26;17.23;;;9.10;;
12556;SDS011;6344;49.932;8.308;2024-02-21T04:16:53;15.43;;;8.47;;
12556;SDS011;6344;49.932;8.308;2024-02-21T04:19:20;10.73;;;7.57;;
12556;SDS011;6344;49.932;8.308;2024-02-21T04:21:47;10.60;;;8.20;;
12556;SDS011;6344;49.932;8.308;2024-02-21T04:24:16;13.57;;;8.77;;
12556;SDS011;6344;49.932;8.308;2024-02-21T04:26:43;16.00;;;9.17;;
12556;SDS011;6344;49.932;8.308;2024-02-21T04:29:11;12.07;;;9.37;;
12556;SDS011;6344;49.932;8.308;2024-02-21T04:31:38;13.80;;;9.60;;
12556;SDS011;6344;49.932;8.308;2024-02-21T04:34:05;10.73;;;7.80;;
12556;SDS011;6344;49.932;8.308;2024-02-21T04:36:33;12.57;;;9.17;;
12556;SDS011;6344;49.932;8.308;2024-02-21T04:39:00;14.07;;;9.53;;
12556;SDS011;6344;49.932;8.308;2024-02-21T04:41:28;18.20;;;9.63;;
12556;SDS011;6344;49.932;8.308;2024-02-21T04:43:55;11.30;;;9.23;;
12556;SDS011;6344;49.932;8.308;2024-02-21T04:46:22;11.53;;;9.43;;
12556;SDS011;6344;49.932;8.308;2024-02-21T04:48:49;14.17;;;10.07;;
12556;SDS011;6344;49.932;8.308;2024-02-21T04:51:16;17.40;;;9.70;;
12556;SDS011;6344;49.932;8.308;2024-02-21T04:53:43;15.33;;;10.13;;
12556;SDS011;6344;49.932;8.308;2024-02-21T04:56:10;12.53;;;8.93;;
12556;SDS011;6344;49.932;8.308;2024-02-21T04:58:39;11.90;;;8.30;;
12556;SDS011;6344;49.932;8.308;2024-02-21T05:01:06;14.80;;;10.20;;
12556;SDS011;6344;49.932;8.308;2024-02-21T05:03:33;10.80;;;9.70;;
12556;SDS011;6344;49.932;8.308;2024-02-21T05:06:00;10.03;;;9.03;;
12556;SDS011;6344;49.932;8.308;2024-02-21T05:08:27;14.03;;;9.60;;
12556;SDS011;6344;49.932;8.308;2024-02-21T05:10:54;13.10;;;9.60;;
12556;SDS011;6344;49.932;8.308;2024-02-21T05:13:21;14.73;;;11.07;;
12556;SDS011;6344;49.932;8.308;2024-02-21T05:15:50;15.10;;;10.87;;
12556;SDS011;6344;49.932;8.308;2024-02-21T05:18:17;12.70;;;10.37;;
12556;SDS011;6344;49.932;8.308;2024-02-21T05:20:44;16.10;;;11.23;;
12556;SDS011;6344;49.932;8.308;2024-02-21T05:23:11;13.73;;;11.73;;
12556;SDS011;6344;49.932;8.308;2024-02-21T05:25:38;14.90;;;11.80;;
12556;SDS011;6344;49.932;8.308;2024-02-21T05:28:05;16.27;;;10.57;;
12556;SDS011;6344;49.932;8.308;2024-02-21T05:30:32;14.80;;;10.77;;
12556;SDS011;6344;49.932;8.308;2024-02-21T05:33:04;16.60;;;12.60;;
12556;SDS011;6344;49.932;8.308;2024-02-21T05:35:32;15.43;;;12.00;;
12556;SDS011;6344;49.932;8.308;2024-02-21T05:37:59;15.67;;;12.20;;
12556;SDS011;6344;49.932;8.308;2024-02-21T05:40:26;13.90;;;12.60;;
12556;SDS011;6344;49.932;8.308;2024-02-21T05:42:53;18.90;;;12.77;;
12556;SDS011;6344;49.932;8.308;2024-02-21T05:45:20;20.67;;;11.73;;
12556;SDS011;6344;49.932;8.308;2024-02-21T05:47:48;16.87;;;12.40;;
12556;SDS011;6344;49.932;8.308;2024-02-21T05:50:16;21.30;;;12.80;;
12556;SDS011;6344;49.932;8.308;2024-02-21T05:52:43;16.73;;;12.20;;
12556;SDS011;6344;49.932;8.308;2024-02-21T05:55:11;16.20;;;12.57;;
12556;SDS011;6344;49.932;8.308;2024-02-21T05:57:38;18.60;;;13.87;;
12556;SDS011;6344;49.932;8.308;2024-02-21T06:00:05;16.00;;;12.80;;
12556;SDS011;6344;49.932;8.308;2024-02-21T06:02:32;17.77;;;13.57;;
12556;SDS011;6344;49.932;8.308;2024-02-21T06:04:59;12.63;;;11.53;;
12556;SDS011;6344;49.932;8.308;2024-02-21T06:07:27;19.23;;;13.10;;
12556;SDS011;6344;49.932;8.308;2024-02-21T06:09:54;16.43;;;13.37;;
12556;SDS011;6344;49.932;8.308;2024-02-21T06:12:22;19.57;;;11.57;;
12556;SDS011;6344;49.932;8.308;2024-02-21T06:14:49;15.27;;;12.90;;
12556;SDS011;6344;49.932;8.308;2024-02-21T06:17:16;17.90;;;13.57;;
12556;SDS011;6344;49.932;8.308;2024-02-21T06:19:43;15.47;;;12.07;;
12556;SDS011;6344;49.932;8.308;2024-02-21T06:22:10;17.97;;;12.67;;
12556;SDS011;6344;49.932;8.308;2024-02-21T06:24:39;18.20;;;13.43;;
12556;SDS011;6344;49.932;8.308;2024-02-21T06:27:06;16.50;;;11.70;;
12556;SDS011;6344;49.932;8.308;2024-02-21T06:29:33;17.80;;;13.10;;
12556;SDS011;6344;49.932;8.308;2024-02-21T06:32:01;17.00;;;13.83;;
12556;SDS011;6344;49.932;8.308;2024-02-21T06:34:28;21.63;;;14.67;;
12556;SDS011;6344;49.932;8.308;2024-02-21T06:36:55;17.20;;;13.43;;
12556;SDS011;6344;49.932;8.308;2024-02-21T06:39:22;17.73;;;13.27;;
12556;SDS011;6344;49.932;8.308;2024-02-21T06:41:51;16.67;;;11.87;;
12556;SDS011;6344;49.932;8.308;2024-02-21T06:44:18;19.60;;;12.93;;
12556;SDS011;6344;49.932;8.308;2024-02-21T06:46:45;17.40;;;13.10;;
12556;SDS011;6344;49.932;8.308;2024-02-21T06:49:12;16.63;;;12.03;;
12556;SDS011;6344;49.932;8.308;2024-02-21T06:51:41;16.10;;;11.33;;
12556;SDS011;6344;49.932;8.308;2024-02-21T06:54:08;16.23;;;12.20;;
12556;SDS011;6344;49.932;8.308;2024-02-21T06:56:35;19.50;;;13.80;;
12556;SDS011;6344;49.932;8.308;2024-02-21T06:59:04;15.57;;;12.57;;
12556;SDS011;6344;49.932;8.308;2024-02-21T07:01:31;18.53;;;13.57;;
12556;SDS011;6344;49.932;8.308;2024-02-21T07:03:58;18.40;;;14.50;;
12556;SDS011;6344;49.932;8.308;2024-02-21T07:06:25;21.17;;;14.37;;
12556;SDS011;6344;49.932;8.308;2024-02-21T07:08:52;23.57;;;14.47;;
12556;SDS011;6344;49.932;8.308;2024-02-21T07:11:19;20.97;;;16.33;;
12556;SDS011;6344;49.932;8.308;2024-02-21T07:13:46;18.50;;;13.80;;
12556;SDS011;6344;49.932;8.308;2024-02-21T07:16:15;20.23;;;14.80;;
12556;SDS011;6344;49.932;8.308;2024-02-21T07:18:42;17.20;;;13.67;;
12556;SDS011;6344;49.932;8.308;2024-02-21T07:21:09;16.13;;;12.60;;
12556;SDS011;6344;49.932;8.308;2024-02-21T07:23:37;17.00;;;14.10;;
12556;SDS011;6344;49.932;8.308;2024-02-21T07:26:07;19.27;;;13.27;;
12556;SDS011;6344;49.932;8.308;2024-02-21T07:28:34;14.90;;;12.03;;
12556;SDS011;6344;49.932;8.308;2024-02-21T07:31:01;19.70;;;12.67;;
12556;SDS011;6344;49.932;8.308;2024-02-21T07:33:30;16.40;;;11.53;;
12556;SDS011;6344;49.932;8.308;2024-02-21T07:35:57;19.53;;;12.67;;
12556;SDS011;6344;49.932;8.308;2024-02-21T07:38:24;16.53;;;12.63;;
12556;SDS011;6344;49.932;8.308;2024-02-21T07:40:51;24.13;;;13.30;;
12556;SDS011;6344;49.932;8.308;2024-02-21T07:43:18;13.03;;;11.37;;
12556;SDS011;6344;49.932;8.308;2024-02-21T07:45:47;13.30;;;11.00;;
12556;SDS011;6344;49.932;8.308;2024-02-21T07:48:14;14.43;;;11.67;;
12556;SDS011;6344;49.932;8.308;2024-02-21T07:50:43;15.67;;;10.20;;
12556;SDS011;6344;49.932;8.308;2024-02-21T07:53:10;12.30;;;10.40;;
12556;SDS011;6344;49.932;8.308;2024-02-21T07:55:37;12.33;;;9.20;;
12556;SDS011;6344;49.932;8.308;2024-02-21T07:58:04;9.30;;;8.23;;
12556;SDS011;6344;49.932;8.308;2024-02-21T08:00:32;9.20;;;7.97;;
12556;SDS011;6344;49.932;8.308;2024-02-21T08:02:59;11.33;;;7.80;;
12556;SDS011;6344;49.932;8.308;2024-02-21T08:05:27;11.00;;;7.93;;
12556;SDS011;6344;49.932;8.308;2024-02-21T08:07:56;14.57;;;9.30;;
12556;SDS011;6344;49.932;8.308;2024-02-21T08:10:23;10.83;;;9.23;;
12556;SDS011;6344;49.932;8.308;2024-02-21T08:12:50;7.97;;;6.67;;
12556;SDS011;6344;49.932;8.308;2024-02-21T08:15:17;9.23;;;6.70;;
12556;SDS011;6344;49.932;8.308;2024-02-21T08:17:45;14.40;;;6.83;;
12556;SDS011;6344;49.932;8.308;2024-02-21T08:20:12;12.30;;;7.80;;
12556;SDS011;6344;49.932;8.308;2024-02-21T08:22:40;7.47;;;5.90;;
12556;SDS011;6344;49.932;8.308;2024-02-21T08:25:08;9.33;;;6.80;;
12556;SDS011;6344;49.932;8.308;2024-02-21T08:27:35;12.60;;;8.53;;
12556;SDS011;6344;49.932;8.308;2024-02-21T08:30:04;8.77;;;7.87;;
12556;SDS011;6344;49.932;8.308;2024-02-21T08:32:32;13.20;;;7.30;;
12556;SDS011;6344;49.932;8.308;2024-02-21T08:35:00;10.93;;;8.00;;
12556;SDS011;6344;49.932;8.308;2024-02-21T08:37:28;8.73;;;7.10;;
12556;SDS011;6344;49.932;8.308;2024-02-21T08:39:55;8.70;;;6.00;;
12556;SDS011;6344;49.932;8.308;2024-02-21T08:42:23;9.40;;;6.53;;
12556;SDS011;6344;49.932;8.308;2024-02-21T08:44:50;13.50;;;6.03;;
12556;SDS011;6344;49.932;8.308;2024-02-21T08:47:17;7.77;;;5.83;;
12556;SDS011;6344;49.932;8.308;2024-02-21T08:49:44;9.23;;;6.53;;
12556;SDS011;6344;49.932;8.308;2024-02-21T08:52:11;10.47;;;6.00;;
12556;SDS011;6344;49.932;8.308;2024-02-21T08:54:38;5.13;;;4.70;;
12556;SDS011;6344;49.932;8.308;2024-02-21T08:57:05;8.97;;;6.20;;
12556;SDS011;6344;49.932;8.308;2024-02-21T08:59:34;13.13;;;6.80;;
12556;SDS011;6344;49.932;8.308;2024-02-21T09:02:01;7.70;;;5.73;;
12556;SDS011;6344;49.932;8.308;2024-02-21T09:04:28;7.80;;;5.83;;
12556;SDS011;6344;49.932;8.308;2024-02-21T09:06:56;7.60;;;6.10;;
12556;SDS011;6344;49.932;8.308;2024-02-21T09:09:23;10.20;;;5.70;;
12556;SDS011;6344;49.932;8.308;2024-02-21T09:11:50;11.40;;;6.37;;
12556;SDS011;6344;49.932;8.308;2024-02-21T09:14:17;11.63;;;6.37;;
12556;SDS011;6344;49.932;8.308;2024-02-21T09:16:45;6.80;;;5.80;;
12556;SDS011;6344;49.932;8.308;2024-02-21T09:19:12;6.97;;;5.17;;
12556;SDS011;6344;49.932;8.308;2024-02-21T09:21:39;10.50;;;6.80;;
12556;SDS011;6344;49.932;8.308;2024-02-21T09:24:06;10.33;;;6.13;;
12556;SDS011;6344;49.932;8.308;2024-02-21T09:26:33;12.13;;;6.23;;
12556;SDS011;6344;49.932;8.308;2024-02-21T09:29:00;6.00;;;5.37;;
12556;SDS011;6344;49.932;8.308;2024-02-21T09:31:28;6.97;;;6.00;;
12556;SDS011;6344;49.932;8.308;2024-02-21T09:33:57;9.13;;;5.77;;
12556;SDS011;6344;49.932;8.308;2024-02-21T09:36:24;8.87;;;5.07;;
12556;SDS011;6344;49.932;8.308;2024-02-21T09:38:51;7.50;;;5.77;;
12556;SDS011;6344;49.932;8.308;2024-02-21T09:44:23;7.40;;;5.53;;
12556;SDS011;6344;49.932;8.308;2024-02-21T09:47:04;5.30;;;4.80;;
12556;SDS011;6344;49.932;8.308;2024-02-21T09:55:41;8.83;;;6.10;;
12556;SDS011;6344;49.932;8.308;2024-02-21T09:58:10;6.63;;;5.70;;
12556;SDS011;6344;49.932;8.308;2024-02-21T10:00:37;6.10;;;5.60;;
12556;SDS011;6344;49.932;8.308;2024-02-21T10:03:04;7.10;;;5.53;;
12556;SDS011;6344;49.932;8.308;2024-02-21T10:05:34;4.80;;;4.40;;
12556;SDS011;6344;49.932;8.308;2024-02-21T10:08:02;5.50;;;4.90;;
12556;SDS011;6344;49.932;8.308;2024-02-21T10:10:29;6.30;;;5.60;;
12556;SDS011;6344;49.932;8.308;2024-02-21T10:12:57;5.47;;;4.83;;
12556;SDS011;6344;49.932;8.308;2024-02-21T10:15:24;6.80;;;5.10;;
12556;SDS011;6344;49.932;8.308;2024-02-21T10:17:57;6.60;;;5.13;;
12556;SDS011;6344;49.932;8.308;2024-02-21T10:20:25;5.67;;;5.17;;
12556;SDS011;6344;49.932;8.308;2024-02-21T10:23:00;8.10;;;5.00;;
12556;SDS011;6344;49.932;8.308;2024-02-21T10:25:27;9.57;;;5.37;;
12556;SDS011;6344;49.932;8.308;2024-02-21T10:27:55;8.07;;;4.93;;
12556;SDS011;6344;49.932;8.308;2024-02-21T10:30:24;5.90;;;5.10;;
12556;SDS011;6344;49.932;8.308;2024-02-21T10:32:51;7.80;;;6.27;;
12556;SDS011;6344;49.932;8.308;2024-02-21T10:35:25;9.70;;;6.07;;
12556;SDS011;6344;49.932;8.308;2024-02-21T10:37:53;9.13;;;5.20;;
12556;SDS011;6344;49.932;8.308;2024-02-21T10:40:20;7.83;;;5.13;;
12556;SDS011;6344;49.932;8.308;2024-02-21T10:42:48;5.13;;;3.77;;
12556;SDS011;6344;49.932;8.308;2024-02-21T10:45:15;7.47;;;5.33;;
12556;SDS011;6344;49.932;8.308;2024-02-21T10:47:44;8.70;;;5.23;;
12556;SDS011;6344;49.932;8.308;2024-02-21T10:50:13;11.80;;;4.20;;
12556;SDS011;6344;49.932;8.308;2024-02-21T10:52:44;11.40;;;4.97;;
12556;SDS011;6344;49.932;8.308;2024-02-21T10:55:16;10.30;;;5.07;;
12556;SDS011;6344;49.932;8.308;2024-02-21T10:57:48;6.03;;;5.20;;
12556;SDS011;6344;49.932;8.308;2024-02-21T11:00:17;7.93;;;4.70;;
12556;SDS011;6344;49.932;8.308;2024-02-21T11:02:46;8.23;;;4.77;;
12556;SDS011;6344;49.932;8.308;2024-02-21T11:05:13;7.00;;;4.70;;
12556;SDS011;6344;49.932;8.308;2024-02-21T11:07:41;9.80;;;5.10;;
12556;SDS011;6344;49.932;8.308;2024-02-21T11:10:20;6.77;;;3.53;;
12556;SDS011;6344;49.932;8.308;2024-02-21T11:12:47;6.83;;;4.40;;
12556;SDS011;6344;49.932;8.308;2024-02-21T11:15:14;8.90;;;4.43;;
12556;SDS011;6344;49.932;8.308;2024-02-21T11:17:41;7.30;;;4.87;;
12556;SDS011;6344;49.932;8.308;2024-02-21T11:20:13;4.43;;;4.03;;
12556;SDS011;6344;49.932;8.308;2024-02-21T11:22:41;8.55;;;5.05;;
12556;SDS011;6344;49.932;8.308;2024-02-21T11:25:08;9.50;;;5.30;;
12556;SDS011;6344;49.932;8.308;2024-02-21T11:27:36;10.30;;;5.23;;
12556;SDS011;6344;49.932;8.308;2024-02-21T11:30:04;5.60;;;4.30;;
12556;SDS011;6344;49.932;8.308;2024-02-21T11:32:31;7.40;;;5.27;;
12556;SDS011;6344;49.932;8.308;2024-02-21T11:34:59;7.97;;;5.80;;
12556;SDS011;6344;49.932;8.308;2024-02-21T11:37:30;8.23;;;4.30;;
12556;SDS011;6344;49.932;8.308;2024-02-21T11:39:58;6.87;;;4.57;;
12556;SDS011;6344;49.932;8.308;2024-02-21T11:42:25;8.23;;;5.17;;
12556;SDS011;6344;49.932;8.308;2024-02-21T11:44:52;4.83;;;3.70;;
12556;SDS011;6344;49.932;8.308;2024-02-21T11:47:21;7.17;;;4.30;;
12556;SDS011;6344;49.932;8.308;2024-02-21T11:49:49;7.10;;;4.90;;
12556;SDS011;6344;49.932;8.308;2024-02-21T11:52:19;6.00;;;4.70;;
12556;SDS011;6344;49.932;8.308;2024-02-21T11:54:48;4.73;;;4.23;;
12556;SDS011;6344;49.932;8.308;2024-02-21T11:57:16;6.33;;;5.27;;
12556;SDS011;6344;49.932;8.308;2024-02-21T11:59:44;7.13;;;5.20;;
12556;SDS011;6344;49.932;8.308;2024-02-21T12:02:11;5.20;;;4.43;;
12556;SDS011;6344;49.932;8.308;2024-02-21T12:04:38;5.43;;;4.53;;
12556;SDS011;6344;49.932;8.308;2024-02-21T12:07:05;4.90;;;4.23;;
12556;SDS011;6344;49.932;8.308;2024-02-21T12:09:33;6.93;;;5.73;;
12556;SDS011;6344;49.932;8.308;2024-02-21T12:12:02;7.63;;;5.60;;
12556;SDS011;6344;49.932;8.308;2024-02-21T12:14:30;6.43;;;5.03;;
12556;SDS011;6344;49.932;8.308;2024-02-21T12:16:58;11.33;;;6.67;;
12556;SDS011;6344;49.932;8.308;2024-02-21T12:19:25;6.03;;;5.43;;
12556;SDS011;6344;49.932;8.308;2024-02-21T12:21:53;11.97;;;5.27;;
12556;SDS011;6344;49.932;8.308;2024-02-21T12:24:23;8.20;;;4.97;;
12556;SDS011;6344;49.932;8.308;2024-02-21T12:26:50;7.00;;;5.33;;
12556;SDS011;6344;49.932;8.308;2024-02-21T12:29:19;12.70;;;6.47;;
12556;SDS011;6344;49.932;8.308;2024-02-21T12:31:46;6.67;;;4.50;;
12556;SDS011;6344;49.932;8.308;2024-02-21T12:34:14;6.43;;;5.17;;
12556;SDS011;6344;49.932;8.308;2024-02-21T12:36:41;5.80;;;4.70;;
12556;SDS011;6344;49.932;8.308;2024-02-21T12:39:08;6.37;;;4.97;;
12556;SDS011;6344;49.932;8.308;2024-02-21T12:41:35;6.70;;;4.47;;
12556;SDS011;6344;49.932;8.308;2024-02-21T12:44:03;6.27;;;4.30;;
12556;SDS011;6344;49.932;8.308;2024-02-21T12:46:33;12.57;;;4.73;;
12556;SDS011;6344;49.932;8.308;2024-02-21T12:49:00;13.63;;;5.33;;
12556;SDS011;6344;49.932;8.308;2024-02-21T12:51:27;8.70;;;4.93;;
12556;SDS011;6344;49.932;8.308;2024-02-21T12:53:54;6.63;;;4.40;;
12556;SDS011;6344;49.932;8.308;2024-02-21T12:56:22;8.57;;;4.57;;
12556;SDS011;6344;49.932;8.308;2024-02-21T12:58:49;6.97;;;4.43;;
12556;SDS011;6344;49.932;8.308;2024-02-21T13:01:16;8.47;;;4.90;;
12556;SDS011;6344;49.932;8.308;2024-02-21T13:03:44;6.97;;;4.60;;
12556;SDS011;6344;49.932;8.308;2024-02-21T13:06:12;5.33;;;4.70;;
12556;SDS011;6344;49.932;8.308;2024-02-21T13:08:39;4.97;;;4.57;;
12556;SDS011;6344;49.932;8.308;2024-02-21T13:11:06;7.87;;;4.80;;
12556;SDS011;6344;49.932;8.308;2024-02-21T13:13:33;8.70;;;5.27;;
12556;SDS011;6344;49.932;8.308;2024-02-21T13:16:00;6.43;;;4.30;;
12556;SDS011;6344;49.932;8.308;2024-02-21T13:18:28;10.87;;;6.60;;
12556;SDS011;6344;49.932;8.308;2024-02-21T13:20:56;11.00;;;4.60;;
12556;SDS011;6344;49.932;8.308;2024-02-21T13:23:23;6.57;;;4.27;;
12556;SDS011;6344;49.932;8.308;2024-02-21T13:25:50;11.30;;;4.43;;
12556;SDS011;6344;49.932;8.308;2024-02-21T13:28:17;7.03;;;3.90;;
12556;SDS011;6344;49.932;8.308;2024-02-21T13:30:44;8.80;;;4.43;;
12556;SDS011;6344;49.932;8.308;2024-02-21T13:33:11;5.47;;;4.80;;
12556;SDS011;6344;49.932;8.308;2024-02-21T13:35:38;8.03;;;4.50;;
12556;SDS011;6344;49.932;8.308;2024-02-21T13:38:07;5.90;;;4.10;;
12556;SDS011;6344;49.932;8.308;2024-02-21T13:40:35;7.00;;;4.10;;
12556;SDS011;6344;49.932;8.308;2024-02-21T13:43:02;3.23;;;2.80;;
12556;SDS011;6344;49.932;8.308;2024-02-21T13:45:29;6.53;;;4.63;;
12556;SDS011;6344;49.932;8.308;2024-02-21T13:47:56;9.80;;;5.10;;
12556;SDS011;6344;49.932;8.308;2024-02-21T13:50:27;5.77;;;4.13;;
12556;SDS011;6344;49.932;8.308;2024-02-21T13:52:56;9.17;;;4.50;;
12556;SDS011;6344;49.932;8.308;2024-02-21T13:55:24;4.70;;;3.50;;
12556;SDS011;6344;49.932;8.308;2024-02-21T13:57:51;5.27;;;3.80;;
12556;SDS011;6344;49.932;8.308;2024-02-21T14:00:19;7.70;;;5.13;;
12556;SDS011;6344;49.932;8.308;2024-02-21T14:02:46;5.40;;;4.00;;
12556;SDS011;6344;49.932;8.308;2024-02-21T14:05:13;4.50;;;3.67;;
12556;SDS011;6344;49.932;8.308;2024-02-21T14:07:40;8.40;;;3.57;;
12556;SDS011;6344;49.932;8.308;2024-02-21T14:10:07;4.73;;;3.33;;
12556;SDS011;6344;49.932;8.308;2024-02-21T14:12:36;7.00;;;3.40;;
12556;SDS011;6344;49.932;8.308;2024-02-21T14:15:05;9.20;;;4.07;;
12556;SDS011;6344;49.932;8.308;2024-02-21T14:17:33;4.90;;;2.97;;
12556;SDS011;6344;49.932;8.308;2024-02-21T14:20:00;7.00;;;3.70;;
12556;SDS011;6344;49.932;8.308;2024-02-21T14:22:28;7.30;;;3.77;;
12556;SDS011;6344;49.932;8.308;2024-02-21T14:24:55;5.93;;;3.43;;
12556;SDS011;6344;49.932;8.308;2024-02-21T14:27:22;5.67;;;3.93;;
12556;SDS011;6344;49.932;8.308;2024-02-21T14:29:50;5.23;;;3.90;;
12556;SDS011;6344;49.932;8.308;2024-02-21T14:32:18;5.60;;;3.60;;
12556;SDS011;6344;49.932;8.308;2024-02-21T14:34:45;8.57;;;4.10;;
12556;SDS011;6344;49.932;8.308;2024-02-21T14:37:13;5.77;;;3.60;;
12556;SDS011;6344;49.932;8.308;2024-02-21T14:39:41;6.43;;;3.80;;
12556;SDS011;6344;49.932;8.308;2024-02-21T14:42:08;4.53;;;3.80;;
12556;SDS011;6344;49.932;8.308;2024-02-21T14:44:35;10.20;;;4.10;;
12556;SDS011;6344;49.932;8.308;2024-02-21T14:47:04;6.43;;;3.93;;
12556;SDS011;6344;49.932;8.308;2024-02-21T14:49:31;7.43;;;4.70;;
12556;SDS011;6344;49.932;8.308;2024-02-21T14:51:58;6.17;;;4.03;;
12556;SDS011;6344;49.932;8.308;2024-02-21T14:54:25;5.03;;;4.23;;
12556;SDS011;6344;49.932;8.308;2024-02-21T15:03:03;3.83;;;3.40;;
12556;SDS011;6344;49.932;8.308;2024-02-21T15:05:30;6.57;;;4.43;;
12556;SDS011;6344;49.932;8.308;2024-02-21T15:07:58;8.30;;;5.00;;
12556;SDS011;6344;49.932;8.308;2024-02-21T15:10:25;5.50;;;4.80;;